createdAt,value
2022-10-06T00:02:24.649Z,99164.19
2022-10-06T00:04:51.375Z,99163.31
2022-10-06T00:07:18.164Z,99167.00
2022-10-06T00:09:44.820Z,99179.69
2022-10-06T00:12:11.620Z,99179.56
2022-10-06T00:14:38.228Z,99183.25
2022-10-06T00:17:05.231Z,99191.09
2022-10-06T00:19:31.945Z,99202.03
2022-10-06T00:21:58.646Z,99206.41
2022-10-06T00:24:25.244Z,99204.56
2022-10-06T00:26:54.775Z,99206.28
2022-10-06T00:29:21.751Z,99221.06
2022-10-06T00:31:48.443Z,99221.38
2022-10-06T00:34:15.070Z,99222.09
2022-10-06T00:36:41.748Z,99227.31
2022-10-06T00:39:08.388Z,99233.19
2022-10-06T00:41:35.178Z,99234.03
2022-10-06T00:44:01.846Z,99254.38
2022-10-06T00:46:41.006Z,99250.03
2022-10-06T00:49:36.205Z,99257.94
2022-10-06T00:52:08.756Z,99257.19
2022-10-06T00:54:36.446Z,99267.47
2022-10-06T00:57:04.451Z,99270.75
2022-10-06T00:59:31.156Z,99278.72
2022-10-06T01:02:03.644Z,99278.47
2022-10-06T01:04:36.858Z,99296.72
2022-10-06T01:07:03.890Z,99299.88
2022-10-06T01:09:31.589Z,99295.56
2022-10-06T01:12:04.135Z,99304.38
2022-10-06T01:14:31.459Z,99308.19
2022-10-06T01:17:04.159Z,99311.09
2022-10-06T01:19:52.484Z,99316.88
2022-10-06T01:22:35.341Z,99319.09
2022-10-06T01:25:04.306Z,99336.13
2022-10-06T01:27:33.841Z,99332.91
2022-10-06T01:30:01.291Z,99341.78
2022-10-06T01:32:34.189Z,99350.47
2022-10-06T01:35:00.836Z,99348.59
2022-10-06T01:37:28.415Z,99350.06
2022-10-06T01:39:55.108Z,99338.47
2022-10-06T01:42:23.679Z,99334.47
2022-10-06T01:44:50.625Z,99332.81
2022-10-06T01:47:17.426Z,99342.47
2022-10-06T01:49:44.060Z,99346.38
2022-10-06T01:52:11.314Z,99341.78
2022-10-06T01:54:37.981Z,99331.81
2022-10-06T01:57:10.569Z,99333.34
2022-10-06T01:59:37.943Z,99340.44
2022-10-06T02:02:04.748Z,99333.38
2022-10-06T02:04:31.591Z,99335.03
2022-10-06T02:06:58.926Z,99340.31
2022-10-06T02:09:25.989Z,99342.84
2022-10-06T02:11:54.152Z,99345.53
2022-10-06T02:14:20.794Z,99346.59
2022-10-06T02:16:47.482Z,99347.44
2022-10-06T02:19:14.301Z,99357.31
2022-10-06T02:21:42.066Z,99356.44
2022-10-06T02:24:09.615Z,99355.66
2022-10-06T02:26:36.797Z,99359.28
2022-10-06T02:29:03.526Z,99372.75
2022-10-06T02:31:31.289Z,99370.16
2022-10-06T02:33:58.933Z,99379.94
2022-10-06T02:36:25.777Z,99376.25
2022-10-06T02:38:52.500Z,99380.91
2022-10-06T02:41:20.016Z,99387.19
2022-10-06T02:43:47.562Z,99396.28
2022-10-06T02:46:15.451Z,99403.03
2022-10-06T02:48:48.630Z,99408.31
2022-10-06T02:51:17.537Z,99407.50
2022-10-06T02:53:47.408Z,99405.16
2022-10-06T02:56:22.292Z,99414.31
2022-10-06T02:58:50.496Z,99419.91
2022-10-06T03:01:43.319Z,99425.88
2022-10-06T03:04:14.895Z,99430.09
2022-10-06T03:06:42.166Z,99431.75
2022-10-06T03:09:29.072Z,99439.84
2022-10-06T03:11:56.400Z,99438.88
2022-10-06T03:14:43.642Z,99435.09
2022-10-06T03:17:10.413Z,99440.56
2022-10-06T03:19:43.520Z,99447.72
2022-10-06T03:22:10.582Z,99449.50
2022-10-06T03:24:49.667Z,99453.94
2022-10-06T03:27:16.378Z,99457.38
2022-10-06T03:29:43.095Z,99461.16
2022-10-06T03:32:09.699Z,99470.03
2022-10-06T03:34:37.611Z,99470.97
2022-10-06T03:37:06.842Z,99475.69
2022-10-06T03:39:34.201Z,99473.63
2022-10-06T03:42:01.432Z,99484.13
2022-10-06T03:44:28.111Z,99487.69
2022-10-06T03:46:54.829Z,99489.69
2022-10-06T03:49:21.572Z,99495.31
2022-10-06T03:51:48.244Z,99503.69
2022-10-06T03:54:24.775Z,99506.25
2022-10-06T03:56:53.561Z,99506.84
2022-10-06T03:59:20.377Z,99503.50
2022-10-06T04:01:48.966Z,99506.84
2022-10-06T04:04:23.901Z,99521.16
2022-10-06T04:06:54.974Z,99521.53
2022-10-06T04:09:21.774Z,99517.38
2022-10-06T04:11:48.667Z,99526.16
2022-10-06T04:14:16.546Z,99531.31
2022-10-06T04:16:47.181Z,99536.31
2022-10-06T04:19:17.360Z,99540.88
2022-10-06T04:21:48.577Z,99548.56
2022-10-06T04:24:19.470Z,99540.56
2022-10-06T04:26:52.252Z,99553.81
2022-10-06T04:29:20.506Z,99548.34
2022-10-06T04:31:55.713Z,99550.03
2022-10-06T04:34:34.539Z,99546.59
2022-10-06T04:37:01.208Z,99557.59
2022-10-06T04:39:27.945Z,99545.91
2022-10-06T04:41:54.723Z,99553.16
2022-10-06T04:44:24.931Z,99554.09
2022-10-06T04:46:53.832Z,99568.31
2022-10-06T04:49:21.018Z,99568.28
2022-10-06T04:51:51.074Z,99565.50
2022-10-06T04:54:21.182Z,99569.97
2022-10-06T04:56:52.992Z,99574.97
2022-10-06T04:59:42.123Z,99575.06
2022-10-06T05:02:09.799Z,99592.31
2022-10-06T05:04:37.872Z,99591.31
2022-10-06T05:07:05.565Z,99595.69
2022-10-06T05:09:32.397Z,99595.66
2022-10-06T05:12:00.709Z,99599.38
2022-10-06T05:14:27.404Z,99603.78
2022-10-06T05:16:54.102Z,99610.69
2022-10-06T05:19:20.775Z,99611.47
2022-10-06T05:21:47.515Z,99611.41
2022-10-06T05:24:18.153Z,99612.06
2022-10-06T05:26:44.963Z,99614.84
2022-10-06T05:29:14.205Z,99619.31
2022-10-06T05:31:43.363Z,99614.06
2022-10-06T05:34:10.952Z,99625.50
2022-10-06T05:36:38.336Z,99632.22
2022-10-06T05:39:06.259Z,99635.06
2022-10-06T05:41:49.033Z,99638.69
2022-10-06T05:44:15.706Z,99642.34
2022-10-06T05:46:43.815Z,99638.25
2022-10-06T05:49:12.814Z,99649.09
2022-10-06T05:51:47.002Z,99641.97
2022-10-06T05:54:21.872Z,99650.91
2022-10-06T05:56:49.232Z,99659.97
2022-10-06T05:59:16.279Z,99665.53
2022-10-06T06:01:43.833Z,99662.06
2022-10-06T06:04:20.797Z,99672.84
2022-10-06T06:06:52.928Z,99669.44
2022-10-06T06:09:22.599Z,99671.41
2022-10-06T06:11:59.967Z,99676.78
2022-10-06T06:14:55.253Z,99689.22
2022-10-06T06:17:25.341Z,99692.59
2022-10-06T06:19:52.006Z,99700.47
2022-10-06T06:22:18.602Z,99707.25
2022-10-06T06:24:48.209Z,99702.69
2022-10-06T06:27:14.878Z,99709.66
2022-10-06T06:29:41.584Z,99702.78
2022-10-06T06:32:09.539Z,99708.56
2022-10-06T06:34:36.511Z,99706.97
2022-10-06T06:37:08.535Z,99716.63
2022-10-06T06:39:36.787Z,99716.75
2022-10-06T06:42:05.147Z,99715.13
2022-10-06T06:44:37.870Z,99721.16
2022-10-06T06:47:10.105Z,99726.28
2022-10-06T06:49:36.738Z,99727.31
2022-10-06T06:52:06.865Z,99715.53
2022-10-06T06:54:35.122Z,99720.47
2022-10-06T06:57:07.164Z,99719.25
2022-10-06T06:59:34.094Z,99728.06
2022-10-06T07:02:01.099Z,99715.00
2022-10-06T07:04:30.610Z,99716.66
2022-10-06T07:06:58.284Z,99706.16
2022-10-06T07:09:36.426Z,99703.63
2022-10-06T07:12:13.345Z,99693.00
2022-10-06T07:15:04.837Z,99702.97
2022-10-06T07:17:58.367Z,99709.41
2022-10-06T07:20:48.105Z,99715.69
2022-10-06T07:23:39.007Z,99724.72
2022-10-06T07:26:10.700Z,99731.00
2022-10-06T07:28:37.451Z,99741.13
2022-10-06T07:31:04.195Z,99744.00
2022-10-06T07:33:32.699Z,99753.66
2022-10-06T07:36:02.878Z,99759.03
2022-10-06T07:38:30.660Z,99771.06
2022-10-06T07:43:48.243Z,99799.03
2022-10-06T07:46:16.427Z,99803.66
2022-10-06T07:48:53.600Z,99819.84
2022-10-06T07:51:20.333Z,99813.44
2022-10-06T07:53:50.692Z,99819.66
2022-10-06T07:56:23.604Z,99826.66
2022-10-06T07:58:54.072Z,99816.69
2022-10-06T08:01:20.922Z,99812.94
2022-10-06T08:03:50.422Z,99809.13
2022-10-06T08:06:18.853Z,99787.13
2022-10-06T08:08:52.504Z,99773.75
2022-10-06T08:11:20.912Z,99765.31
2022-10-06T08:13:51.673Z,99762.53
2022-10-06T08:16:21.120Z,99763.13
2022-10-06T08:18:53.293Z,99751.38
2022-10-06T08:21:29.214Z,99765.31
2022-10-06T08:23:58.064Z,99755.44
2022-10-06T08:26:26.639Z,99772.38
2022-10-06T08:28:57.439Z,99763.72
2022-10-06T08:31:24.266Z,99776.81
2022-10-06T08:33:56.002Z,99783.59
2022-10-06T08:36:29.817Z,99784.53
2022-10-06T08:38:57.906Z,99777.19
2022-10-06T08:41:48.450Z,99791.97
2022-10-06T08:44:17.964Z,99788.06
2022-10-06T08:46:49.389Z,99794.53
2022-10-06T08:49:20.316Z,99790.09
2022-10-06T08:51:58.459Z,99803.22
2022-10-06T08:54:37.102Z,99800.06
2022-10-06T08:57:37.283Z,99801.22
2022-10-06T09:00:11.943Z,99805.53
2022-10-06T09:02:49.198Z,99814.97
2022-10-06T09:05:19.308Z,99809.78
2022-10-06T09:08:01.268Z,99811.00
2022-10-06T09:10:49.091Z,99815.69
2022-10-06T09:13:29.022Z,99820.97
2022-10-06T09:16:07.501Z,99824.59
2022-10-06T09:19:03.827Z,99831.53
2022-10-06T09:21:37.716Z,99831.53
2022-10-06T09:24:15.714Z,99850.34
2022-10-06T09:26:45.335Z,99847.38
2022-10-06T09:29:13.067Z,99852.28
2022-10-06T09:31:42.569Z,99855.44
2022-10-06T09:34:37.447Z,99851.38
2022-10-06T09:37:09.067Z,99843.97
2022-10-06T09:39:37.756Z,99834.25
2022-10-06T09:42:27.014Z,99834.25
2022-10-06T09:45:20.473Z,99831.56
2022-10-06T09:47:47.236Z,99838.63
2022-10-06T09:50:24.269Z,99830.81
2022-10-06T09:53:06.167Z,99830.81
2022-10-06T09:55:43.269Z,99834.63
2022-10-06T09:58:20.636Z,99839.72
2022-10-06T10:00:54.130Z,99837.75
2022-10-06T10:03:21.796Z,99837.00
2022-10-06T10:05:50.791Z,99838.97
2022-10-06T10:08:27.285Z,99835.09
2022-10-06T10:11:41.918Z,99836.91
2022-10-06T10:14:20.272Z,99845.16
2022-10-06T10:16:52.358Z,99843.38
2022-10-06T10:19:28.054Z,99845.22
2022-10-06T10:21:57.595Z,99841.69
2022-10-06T10:24:47.544Z,99830.63
2022-10-06T10:27:51.209Z,99837.16
2022-10-06T10:30:18.607Z,99840.16
2022-10-06T10:33:09.077Z,99838.66
2022-10-06T10:35:45.727Z,99842.34
2022-10-06T10:38:19.893Z,99839.97
2022-10-06T10:40:54.739Z,99839.16
2022-10-06T10:43:41.590Z,99837.63
2022-10-06T10:46:42.993Z,99836.25
2022-10-06T10:49:20.441Z,99839.25
2022-10-06T10:52:06.637Z,99838.31
2022-10-06T10:54:51.815Z,99844.59
2022-10-06T10:57:35.192Z,99849.66
2022-10-06T11:00:08.553Z,99838.00
2022-10-06T11:02:35.788Z,99843.66
2022-10-06T11:05:30.351Z,99837.41
2022-10-06T11:08:09.165Z,99842.19
2022-10-06T11:10:46.316Z,99840.78
2022-10-06T11:13:37.359Z,99841.72
2022-10-06T11:16:25.451Z,99838.69
2022-10-06T11:19:01.069Z,99836.28
2022-10-06T11:21:34.607Z,99838.41
2022-10-06T11:24:16.296Z,99841.13
2022-10-06T11:27:20.122Z,99841.47
2022-10-06T11:30:05.513Z,99837.44
2022-10-06T11:33:10.068Z,99839.94
2022-10-06T11:35:41.451Z,99840.97
2022-10-06T11:38:24.838Z,99837.91
2022-10-06T11:41:10.294Z,99833.56
2022-10-06T11:43:46.203Z,99828.69
2022-10-06T11:46:12.833Z,99824.25
2022-10-06T11:48:40.489Z,99831.25
2022-10-06T11:51:25.271Z,99818.69
2022-10-06T11:53:52.755Z,99823.03
2022-10-06T11:56:19.376Z,99811.16
2022-10-06T11:58:52.090Z,99823.28
2022-10-06T12:01:43.832Z,99814.00
2022-10-06T12:04:10.519Z,99816.94
2022-10-06T12:06:52.704Z,99811.59
2022-10-06T12:09:25.922Z,99812.88
2022-10-06T12:12:00.113Z,99811.69
2022-10-06T12:17:28.107Z,99815.91
2022-10-06T12:20:08.665Z,99814.66
2022-10-06T12:22:47.152Z,99815.94
2022-10-06T12:25:32.513Z,99809.88
2022-10-06T12:28:26.720Z,99804.72
2022-10-06T12:31:18.677Z,99815.63
2022-10-06T12:33:46.139Z,99806.53
2022-10-06T12:36:23.254Z,99811.59
2022-10-06T12:39:02.396Z,99811.06
2022-10-06T12:42:01.994Z,99814.50
2022-10-06T12:44:36.271Z,99808.34
2022-10-06T12:47:10.445Z,99796.31
2022-10-06T12:49:45.799Z,99788.53
2022-10-06T12:52:25.009Z,99797.47
2022-10-06T12:55:15.066Z,99793.44
2022-10-06T12:57:47.892Z,99793.25
2022-10-06T13:00:34.085Z,99787.88
2022-10-06T13:03:03.177Z,99787.06
2022-10-06T13:05:30.178Z,99779.69
2022-10-06T13:07:59.596Z,99782.81
2022-10-06T13:10:26.899Z,99785.09
2022-10-06T13:12:55.369Z,99776.50
2022-10-06T13:15:34.400Z,99771.97
2022-10-06T13:18:12.993Z,99773.28
2022-10-06T13:20:48.393Z,99774.28
2022-10-06T13:23:20.727Z,99780.50
2022-10-06T13:25:58.125Z,99782.88
2022-10-06T13:28:36.666Z,99784.22
2022-10-06T13:31:18.064Z,99774.84
2022-10-06T13:33:46.786Z,99775.44
2022-10-06T13:36:14.213Z,99777.19
2022-10-06T13:38:41.783Z,99772.78
2022-10-06T13:41:11.162Z,99777.84
2022-10-06T13:43:41.681Z,99769.72
2022-10-06T13:46:12.180Z,99771.34
2022-10-06T13:48:45.926Z,99778.31
2022-10-06T13:51:18.861Z,99769.03
2022-10-06T13:53:47.747Z,99769.91
2022-10-06T13:56:36.182Z,99765.28
2022-10-06T13:59:38.283Z,99770.19
2022-10-06T14:02:22.282Z,99767.19
2022-10-06T14:05:21.295Z,99768.22
2022-10-06T14:07:49.274Z,99766.72
2022-10-06T14:10:29.103Z,99771.50
2022-10-06T14:12:55.917Z,99764.75
2022-10-06T14:15:29.428Z,99764.69
2022-10-06T14:18:00.188Z,99767.59
2022-10-06T14:20:35.767Z,99769.00
2022-10-06T14:23:02.431Z,99760.94
2022-10-06T14:25:29.033Z,99759.88
2022-10-06T14:27:55.784Z,99757.75
2022-10-06T14:30:22.481Z,99754.97
2022-10-06T14:32:49.626Z,99750.72
2022-10-06T14:35:16.285Z,99755.13
2022-10-06T14:37:42.888Z,99758.00
2022-10-06T14:40:12.149Z,99750.88
2022-10-06T14:42:39.032Z,99755.81
2022-10-06T14:45:06.269Z,99752.78
2022-10-06T14:47:32.922Z,99751.78
2022-10-06T14:49:59.617Z,99748.16
2022-10-06T14:52:26.298Z,99754.59
2022-10-06T14:54:52.942Z,99753.47
2022-10-06T14:57:20.894Z,99752.16
2022-10-06T14:59:47.672Z,99746.03
2022-10-06T15:02:14.399Z,99744.09
2022-10-06T15:04:41.036Z,99739.53
2022-10-06T15:07:26.288Z,99734.19
2022-10-06T15:09:52.952Z,99739.16
2022-10-06T15:12:19.573Z,99729.19
2022-10-06T15:14:46.263Z,99732.41
2022-10-06T15:17:12.962Z,99735.91
2022-10-06T15:19:40.303Z,99729.97
2022-10-06T15:22:08.835Z,99731.66
2022-10-06T15:24:35.570Z,99726.44
2022-10-06T15:27:24.673Z,99732.25
2022-10-06T15:29:51.837Z,99724.84
2022-10-06T15:32:18.439Z,99726.44
2022-10-06T15:34:45.181Z,99724.50
2022-10-06T15:37:11.773Z,99726.75
2022-10-06T15:39:38.475Z,99725.31
2022-10-06T15:42:05.776Z,99719.75
2022-10-06T15:44:34.550Z,99712.28
2022-10-06T15:47:03.728Z,99712.84
2022-10-06T15:49:32.583Z,99713.25
2022-10-06T15:52:02.614Z,99713.16
2022-10-06T15:54:37.916Z,99707.34
2022-10-06T15:57:08.538Z,99712.25
2022-10-06T15:59:35.907Z,99709.69
2022-10-06T16:02:07.232Z,99714.44
2022-10-06T16:04:39.336Z,99714.44
2022-10-06T16:07:11.337Z,99717.22
2022-10-06T16:09:43.533Z,99722.03
2022-10-06T16:12:16.203Z,99717.28
2022-10-06T16:14:43.889Z,99716.50
2022-10-06T16:17:11.735Z,99724.53
2022-10-06T16:19:39.994Z,99731.47
2022-10-06T16:22:08.583Z,99723.69
2022-10-06T16:24:35.315Z,99719.38
2022-10-06T16:27:02.207Z,99715.81
2022-10-06T16:29:28.875Z,99709.09
2022-10-06T16:31:55.851Z,99714.84
2022-10-06T16:34:22.939Z,99715.88
2022-10-06T16:36:49.574Z,99717.03
2022-10-06T16:39:21.371Z,99716.66
2022-10-06T16:41:48.823Z,99718.06
2022-10-06T16:44:15.508Z,99722.13
2022-10-06T16:46:42.307Z,99719.94
2022-10-06T16:49:09.737Z,99717.03
2022-10-06T16:51:38.378Z,99725.97
2022-10-06T16:54:09.754Z,99715.53
2022-10-06T16:56:41.886Z,99724.59
2022-10-06T16:59:17.001Z,99730.56
2022-10-06T17:01:44.363Z,99722.97
2022-10-06T17:04:25.171Z,99729.41
2022-10-06T17:06:56.814Z,99731.63
2022-10-06T17:09:25.856Z,99736.63
2022-10-06T17:11:54.987Z,99737.19
2022-10-06T17:14:22.027Z,99741.19
2022-10-06T17:16:51.186Z,99740.66
2022-10-06T17:19:20.290Z,99747.16
2022-10-06T17:21:49.619Z,99746.66
2022-10-06T17:24:18.976Z,99740.69
2022-10-06T17:26:48.389Z,99744.41
2022-10-06T17:29:18.747Z,99748.31
2022-10-06T17:31:46.321Z,99749.78
2022-10-06T17:34:20.020Z,99750.19
2022-10-06T17:36:48.963Z,99751.22
2022-10-06T17:39:18.109Z,99757.38
2022-10-06T17:41:45.745Z,99760.19
2022-10-06T17:44:18.767Z,99761.03
2022-10-06T17:46:45.533Z,99765.75
2022-10-06T17:49:14.974Z,99771.34
2022-10-06T17:51:45.133Z,99768.28
2022-10-06T17:54:16.933Z,99767.63
2022-10-06T17:56:44.612Z,99765.22
2022-10-06T17:59:17.660Z,99774.53
2022-10-06T18:01:44.815Z,99771.09
2022-10-06T18:04:15.504Z,99771.97
2022-10-06T18:06:43.484Z,99772.13
2022-10-06T18:09:10.432Z,99766.28
2022-10-06T18:11:41.942Z,99769.88
2022-10-06T18:14:20.183Z,99767.44
2022-10-06T18:16:56.623Z,99769.31
2022-10-06T18:19:35.391Z,99768.53
2022-10-06T18:22:10.295Z,99765.03
2022-10-06T18:24:37.725Z,99764.16
2022-10-06T18:27:06.223Z,99761.63
2022-10-06T18:29:36.001Z,99768.09
2022-10-06T18:37:36.611Z,99769.22
2022-10-06T18:40:06.448Z,99767.66
2022-10-06T18:42:33.125Z,99767.13
2022-10-06T18:45:18.506Z,99763.97
2022-10-06T18:48:03.823Z,99762.47
2022-10-06T18:50:31.046Z,99761.94
2022-10-06T18:52:57.837Z,99765.56
2022-10-06T18:55:26.293Z,99764.00
2022-10-06T18:57:53.208Z,99767.63
2022-10-06T19:00:19.857Z,99753.28
2022-10-06T19:02:49.265Z,99759.69
2022-10-06T19:05:17.386Z,99765.84
2022-10-06T19:07:44.892Z,99765.03
2022-10-06T19:10:11.992Z,99768.78
2022-10-06T19:12:38.907Z,99765.56
2022-10-06T19:15:06.043Z,99761.22
2022-10-06T19:17:32.793Z,99766.69
2022-10-06T19:19:59.424Z,99760.66
2022-10-06T19:22:26.094Z,99774.91
2022-10-06T19:24:52.931Z,99773.25
2022-10-06T19:27:24.951Z,99770.63
2022-10-06T19:29:53.967Z,99775.94
2022-10-06T19:32:24.640Z,99771.56
2022-10-06T19:34:52.156Z,99782.28
2022-10-06T19:37:18.970Z,99778.00
2022-10-06T19:39:48.018Z,99768.41
2022-10-06T19:42:35.658Z,99775.66
2022-10-06T19:45:03.675Z,99782.97
2022-10-06T19:47:30.350Z,99777.78
2022-10-06T19:50:02.130Z,99774.22
2022-10-06T19:52:31.328Z,99779.59
2022-10-06T19:54:58.814Z,99780.44
2022-10-06T19:57:28.641Z,99785.97
2022-10-06T19:59:55.278Z,99779.97
2022-10-06T20:02:22.746Z,99776.56
2022-10-06T20:04:50.385Z,99782.88
2022-10-06T20:07:21.390Z,99782.91
2022-10-06T20:09:48.630Z,99781.16
2022-10-06T20:12:17.819Z,99775.09
2022-10-06T20:14:47.554Z,99780.38
2022-10-06T20:17:14.219Z,99776.19
2022-10-06T20:19:40.798Z,99776.38
2022-10-06T20:22:07.469Z,99774.72
2022-10-06T20:24:34.121Z,99773.84
2022-10-06T20:27:00.747Z,99773.84
2022-10-06T20:29:28.107Z,99769.34
2022-10-06T20:31:56.665Z,99766.59
2022-10-06T20:34:26.739Z,99771.06
2022-10-06T20:36:56.238Z,99771.19
2022-10-06T20:39:42.106Z,99764.13
2022-10-06T20:42:13.918Z,99761.53
2022-10-06T20:44:42.220Z,99763.53
2022-10-06T20:47:10.198Z,99762.88
2022-10-06T20:49:37.195Z,99754.06
2022-10-06T20:52:05.665Z,99757.72
2022-10-06T20:54:34.779Z,99749.75
2022-10-06T20:57:04.907Z,99755.94
2022-10-06T20:59:35.016Z,99755.13
2022-10-06T21:02:02.281Z,99750.75
2022-10-06T21:04:29.196Z,99752.66
2022-10-06T21:06:56.070Z,99752.81
2022-10-06T21:09:24.219Z,99752.13
2022-10-06T21:11:51.023Z,99746.00
2022-10-06T21:14:18.112Z,99746.75
2022-10-06T21:16:46.921Z,99744.97
2022-10-06T21:19:16.635Z,99749.31
2022-10-06T21:21:49.743Z,99744.06
2022-10-06T21:24:16.748Z,99743.25
2022-10-06T21:26:43.628Z,99746.06
2022-10-06T21:29:15.416Z,99740.88
2022-10-06T21:31:43.297Z,99745.31
2022-10-06T21:34:10.395Z,99743.56
2022-10-06T21:36:37.624Z,99745.34
2022-10-06T21:39:05.677Z,99747.06
2022-10-06T21:41:40.676Z,99746.34
2022-10-06T21:44:13.196Z,99740.13
2022-10-06T21:46:41.508Z,99742.72
2022-10-06T21:49:13.767Z,99747.25
2022-10-06T21:51:41.620Z,99735.81
2022-10-06T21:54:10.369Z,99735.84
2022-10-06T21:56:37.634Z,99736.75
2022-10-06T21:59:04.670Z,99730.59
2022-10-06T22:01:36.875Z,99732.41
2022-10-06T22:04:04.425Z,99735.91
2022-10-06T22:06:33.175Z,99726.97
2022-10-06T22:09:01.191Z,99726.13
2022-10-06T22:11:30.621Z,99722.53
2022-10-06T22:13:59.802Z,99721.75
2022-10-06T22:16:29.305Z,99713.91
2022-10-06T22:18:56.893Z,99722.81
2022-10-06T22:21:30.110Z,99717.56
2022-10-06T22:24:02.032Z,99721.94
2022-10-06T22:26:30.892Z,99718.44
2022-10-06T22:28:58.643Z,99716.72
2022-10-06T22:31:27.239Z,99706.97
2022-10-06T22:33:58.976Z,99703.50
2022-10-06T22:36:27.251Z,99702.63
2022-10-06T22:38:55.283Z,99700.94
2022-10-06T22:41:22.504Z,99693.84
2022-10-06T22:43:49.304Z,99699.94
2022-10-06T22:46:15.960Z,99692.91
2022-10-06T22:48:42.634Z,99699.97
2022-10-06T22:51:09.272Z,99699.19
2022-10-06T22:53:35.919Z,99693.97
2022-10-06T22:56:03.891Z,99689.63
2022-10-06T22:58:31.056Z,99687.09
2022-10-06T23:00:57.787Z,99685.41
2022-10-06T23:03:24.706Z,99681.00
2022-10-06T23:06:00.028Z,99675.66
2022-10-06T23:08:30.161Z,99672.97
2022-10-06T23:11:10.314Z,99667.56
2022-10-06T23:13:37.372Z,99672.00
2022-10-06T23:16:07.742Z,99660.56
2022-10-06T23:18:36.737Z,99667.72
2022-10-06T23:21:04.150Z,99664.22
2022-10-06T23:23:31.237Z,99663.44
2022-10-06T23:26:04.060Z,99661.75
2022-10-06T23:28:30.799Z,99663.53
2022-10-06T23:30:57.462Z,99654.69
2022-10-06T23:33:24.091Z,99658.16
2022-10-06T23:36:01.312Z,99652.91
2022-10-06T23:38:28.363Z,99645.78
2022-10-06T23:40:55.305Z,99649.31
2022-10-06T23:43:22.994Z,99651.94
2022-10-06T23:45:50.237Z,99651.09
2022-10-06T23:48:17.115Z,99642.28
2022-10-06T23:50:53.955Z,99644.97
2022-10-06T23:53:20.563Z,99645.91
2022-10-06T23:55:47.307Z,99638.03
2022-10-06T23:58:14.682Z,99642.47
